KBPT/BPT METAR and TAF weather

Enter ICAO airport designator
Station Type Date Time Source
KBPT METAR 2021/03/05 18:53 UTC NOAA

KBPT 051853Z 11008KT 10SM OVC024 17/14 A2996 RMK AO2 SLP144 T01670139


Station Type Date Time Source
KBPT Decoded METAR 2021/03/05 18:53 UTC NOAA

SOUTHEAST TEXAS RGNL AIRPORT, TX, United States (KBPT) 29-95N 094-08W 5M
Mar 05, 2021 - 01:53 PM EST / 2021.03.05 1853 UTC
Wind: from the ESE (110 degrees) at 9 MPH (8 KT):0
Visibility: 10 mile(s):0
Sky conditions: overcast
Temperature: 62.1 F (16.7 C)
Dew Point: 57.0 F (13.9 C)
Relative Humidity: 83%
Pressure (altimeter): 29.96 in. Hg (1014 hPa)
ob: KBPT 051853Z 11008KT 10SM OVC024 17/14 A2996 RMK AO2 SLP144 T01670139
cycle: 19

Station Type Date Time Source
KBPT TAF 2021/03/05 18:27 UTC NOAA

TAF KBPT 051724Z 0518/0618 13010KT P6SM OVC025
FM052100 12008KT P6SM VCSH OVC015
FM060000 VRB05KT P6SM VCTS OVC015CB
TEMPO 0600/0604 4SM -RA OVC007
FM060500 01009KT P6SM OVC015
FM061000 01012KT P6SM BKN030
FM061400 02012G19KT P6SM FEW035

Example: see airport list